sensor_id;sensor_type;location;lat;lon;timestamp;pressure;altitude;pressure_sealevel;temperature;humidity
69316;BME280;56445;43.552;5.034;2022-07-23T07:39:00;101555.97;;;43.11;22.96
69316;BME280;56445;43.552;5.034;2022-07-23T07:41:28;101553.44;;;43.24;22.89
69316;BME280;56445;43.552;5.034;2022-07-23T07:43:55;101552.19;;;43.32;22.94
69316;BME280;56445;43.552;5.034;2022-07-23T07:46:22;101553.31;;;43.42;22.93
69316;BME280;56445;43.552;5.034;2022-07-23T07:48:51;101563.00;;;43.51;22.89
69316;BME280;56445;43.552;5.034;2022-07-23T07:51:23;101562.13;;;43.54;22.87
69316;BME280;56445;43.552;5.034;2022-07-23T07:53:51;101571.41;;;43.62;22.63
69316;BME280;56445;43.552;5.034;2022-07-23T07:56:19;101558.88;;;43.56;22.61
69316;BME280;56445;43.552;5.034;2022-07-23T07:58:46;101579.09;;;43.69;22.54
69316;BME280;56445;43.552;5.034;2022-07-23T08:01:13;101570.97;;;43.71;22.79
69316;BME280;56445;43.552;5.034;2022-07-23T08:03:41;101551.97;;;43.61;22.52
69316;BME280;56445;43.552;5.034;2022-07-23T08:06:08;101562.84;;;43.66;22.61
69316;BME280;56445;43.552;5.034;2022-07-23T08:08:35;101562.84;;;43.69;22.66
69316;BME280;56445;43.552;5.034;2022-07-23T08:11:02;101564.41;;;43.74;22.67
69316;BME280;56445;43.552;5.034;2022-07-23T08:13:29;101577.34;;;43.82;22.60
69316;BME280;56445;43.552;5.034;2022-07-23T08:15:56;101572.91;;;43.81;23.02
69316;BME280;56445;43.552;5.034;2022-07-23T08:18:24;101574.09;;;43.80;22.82
69316;BME280;56445;43.552;5.034;2022-07-23T08:20:51;101555.94;;;43.70;22.71
69316;BME280;56445;43.552;5.034;2022-07-23T08:23:18;101564.81;;;43.76;22.98
69316;BME280;56445;43.552;5.034;2022-07-23T08:25:46;101569.63;;;43.83;23.02
69316;BME280;56445;43.552;5.034;2022-07-23T08:28:14;101565.13;;;43.85;22.64
69316;BME280;56445;43.552;5.034;2022-07-23T08:30:43;101567.09;;;43.92;22.71
69316;BME280;56445;43.552;5.034;2022-07-23T08:33:17;101568.28;;;43.94;22.83
69316;BME280;56445;43.552;5.034;2022-07-23T08:36:03;101567.38;;;44.08;23.11
69316;BME280;56445;43.552;5.034;2022-07-23T08:38:33;101562.47;;;44.05;22.98
69316;BME280;56445;43.552;5.034;2022-07-23T08:41:00;101560.84;;;44.08;22.66
69316;BME280;56445;43.552;5.034;2022-07-23T08:43:32;101560.00;;;44.11;22.80
69316;BME280;56445;43.552;5.034;2022-07-23T08:46:02;101551.06;;;44.12;23.03
69316;BME280;56445;43.552;5.034;2022-07-23T08:48:32;101547.72;;;44.21;22.58
69316;BME280;56445;43.552;5.034;2022-07-23T08:51:02;101550.91;;;44.27;22.63
69316;BME280;56445;43.552;5.034;2022-07-23T08:53:31;101556.88;;;44.36;22.86
69316;BME280;56445;43.552;5.034;2022-07-23T08:56:00;101545.41;;;44.43;22.74
69316;BME280;56445;43.552;5.034;2022-07-23T08:58:31;101559.16;;;44.52;22.99
69316;BME280;56445;43.552;5.034;2022-07-23T09:00:59;101555.38;;;44.59;22.96
69316;BME280;56445;43.552;5.034;2022-07-23T09:03:36;101557.28;;;44.69;22.69
69316;BME280;56445;43.552;5.034;2022-07-23T09:06:06;101560.88;;;44.73;22.88
69316;BME280;56445;43.552;5.034;2022-07-23T09:08:36;101536.19;;;44.66;23.06
69316;BME280;56445;43.552;5.034;2022-07-23T09:11:06;101558.38;;;44.79;23.06
69316;BME280;56445;43.552;5.034;2022-07-23T09:13:41;101555.84;;;44.84;22.59
69316;BME280;56445;43.552;5.034;2022-07-23T09:16:23;101548.88;;;44.89;22.60
69316;BME280;56445;43.552;5.034;2022-07-23T09:18:54;101547.66;;;44.90;22.77
69316;BME280;56445;43.552;5.034;2022-07-23T09:21:29;101567.78;;;45.03;22.69
69316;BME280;56445;43.552;5.034;2022-07-23T09:24:03;101558.06;;;45.00;23.00
69316;BME280;56445;43.552;5.034;2022-07-23T09:29:13;101557.97;;;45.07;22.80
69316;BME280;56445;43.552;5.034;2022-07-23T09:31:54;101560.44;;;45.05;23.32
69316;BME280;56445;43.552;5.034;2022-07-23T09:34:30;101569.38;;;45.07;22.80
69316;BME280;56445;43.552;5.034;2022-07-23T09:37:12;101570.13;;;45.11;23.04
69316;BME280;56445;43.552;5.034;2022-07-23T09:39:41;101564.41;;;45.11;22.64
69316;BME280;56445;43.552;5.034;2022-07-23T09:42:23;101552.09;;;45.18;22.99
69316;BME280;56445;43.552;5.034;2022-07-23T09:44:54;101555.28;;;45.24;22.80
69316;BME280;56445;43.552;5.034;2022-07-23T09:47:30;101552.34;;;45.31;22.93
69316;BME280;56445;43.552;5.034;2022-07-23T09:50:08;101558.16;;;45.47;23.02
69316;BME280;56445;43.552;5.034;2022-07-23T09:52:43;101566.72;;;45.47;22.96
69316;BME280;56445;43.552;5.034;2022-07-23T09:55:11;101551.28;;;45.45;22.72
69316;BME280;56445;43.552;5.034;2022-07-23T09:57:40;101554.75;;;45.56;22.90
69316;BME280;56445;43.552;5.034;2022-07-23T10:00:09;101554.16;;;45.68;22.88
69316;BME280;56445;43.552;5.034;2022-07-23T10:02:38;101548.97;;;45.83;23.04
69316;BME280;56445;43.552;5.034;2022-07-23T10:05:08;101541.03;;;45.95;22.74
69316;BME280;56445;43.552;5.034;2022-07-23T10:07:39;101542.09;;;46.04;22.86
69316;BME280;56445;43.552;5.034;2022-07-23T10:10:07;101547.13;;;46.17;22.67
69316;BME280;56445;43.552;5.034;2022-07-23T10:12:36;101552.41;;;46.38;22.86
69316;BME280;56445;43.552;5.034;2022-07-23T10:15:18;101545.75;;;46.45;23.00
69316;BME280;56445;43.552;5.034;2022-07-23T10:17:46;101557.53;;;46.67;22.76
69316;BME280;56445;43.552;5.034;2022-07-23T10:20:13;101541.75;;;46.79;22.79
69316;BME280;56445;43.552;5.034;2022-07-23T10:23:10;101553.41;;;47.04;22.66
69316;BME280;56445;43.552;5.034;2022-07-23T10:26:16;101527.94;;;47.10;22.77
69316;BME280;56445;43.552;5.034;2022-07-23T10:28:59;101548.63;;;47.34;22.75
69316;BME280;56445;43.552;5.034;2022-07-23T10:31:38;101540.81;;;47.51;22.77
69316;BME280;56445;43.552;5.034;2022-07-23T10:37:37;101540.09;;;47.80;22.74
69316;BME280;56445;43.552;5.034;2022-07-23T10:40:17;101525.84;;;47.93;22.58
69316;BME280;56445;43.552;5.034;2022-07-23T10:42:46;101519.34;;;48.05;22.56
69316;BME280;56445;43.552;5.034;2022-07-23T10:45:28;101540.31;;;48.31;22.44
69316;BME280;56445;43.552;5.034;2022-07-23T10:50:41;101536.66;;;48.56;22.30
69316;BME280;56445;43.552;5.034;2022-07-23T10:53:16;101537.50;;;48.70;22.13
69316;BME280;56445;43.552;5.034;2022-07-23T10:55:50;101532.78;;;48.76;22.08
69316;BME280;56445;43.552;5.034;2022-07-23T10:58:23;101518.59;;;48.85;22.39
69316;BME280;56445;43.552;5.034;2022-07-23T11:00:50;101518.94;;;48.87;22.28
69316;BME280;56445;43.552;5.034;2022-07-23T11:03:32;101529.56;;;48.99;22.52
69316;BME280;56445;43.552;5.034;2022-07-23T11:06:02;101520.09;;;49.02;22.06
69316;BME280;56445;43.552;5.034;2022-07-23T11:08:30;101515.84;;;49.07;22.02
69316;BME280;56445;43.552;5.034;2022-07-23T11:13:33;101523.75;;;49.03;21.90
69316;BME280;56445;43.552;5.034;2022-07-23T11:24:00;101531.50;;;48.51;21.84
69316;BME280;56445;43.552;5.034;2022-07-23T11:32:19;101526.38;;;48.97;21.88
69316;BME280;56445;43.552;5.034;2022-07-23T11:34:51;101515.63;;;49.01;21.85
69316;BME280;56445;43.552;5.034;2022-07-23T11:37:29;101510.31;;;49.26;22.06
69316;BME280;56445;43.552;5.034;2022-07-23T11:39:58;101502.25;;;49.33;21.83
69316;BME280;56445;43.552;5.034;2022-07-23T11:42:26;101518.13;;;49.60;21.92
69316;BME280;56445;43.552;5.034;2022-07-23T11:44:57;101498.41;;;49.62;21.44
69316;BME280;56445;43.552;5.034;2022-07-23T11:47:26;101499.50;;;49.77;21.80
69316;BME280;56445;43.552;5.034;2022-07-23T11:49:55;101498.81;;;49.95;21.59
69316;BME280;56445;43.552;5.034;2022-07-23T11:52:24;101501.78;;;50.05;21.62
69316;BME280;56445;43.552;5.034;2022-07-23T11:54:58;101511.56;;;50.16;21.44
69316;BME280;56445;43.552;5.034;2022-07-23T11:57:28;101508.53;;;50.11;21.26
69316;BME280;56445;43.552;5.034;2022-07-23T12:00:08;101493.56;;;50.16;21.19
69316;BME280;56445;43.552;5.034;2022-07-23T12:02:49;101495.03;;;50.20;21.42
69316;BME280;56445;43.552;5.034;2022-07-23T12:05:18;101514.81;;;50.28;21.38
69316;BME280;56445;43.552;5.034;2022-07-23T12:07:47;101496.94;;;50.24;21.15
69316;BME280;56445;43.552;5.034;2022-07-23T12:10:19;101505.63;;;50.33;20.98
69316;BME280;56445;43.552;5.034;2022-07-23T12:12:52;101500.59;;;50.24;21.34
69316;BME280;56445;43.552;5.034;2022-07-23T12:15:26;101488.78;;;50.22;20.95
69316;BME280;56445;43.552;5.034;2022-07-23T12:17:53;101486.69;;;50.13;20.83
69316;BME280;56445;43.552;5.034;2022-07-23T12:20:23;101492.97;;;50.21;21.05
69316;BME280;56445;43.552;5.034;2022-07-23T12:22:55;101487.59;;;50.32;21.30
69316;BME280;56445;43.552;5.034;2022-07-23T12:25:26;101471.56;;;50.44;20.95
69316;BME280;56445;43.552;5.034;2022-07-23T12:33:07;101484.28;;;50.74;20.76
69316;BME280;56445;43.552;5.034;2022-07-23T12:35:40;101472.47;;;50.72;20.60
69316;BME280;56445;43.552;5.034;2022-07-23T12:38:13;101470.38;;;50.73;20.50
69316;BME280;56445;43.552;5.034;2022-07-23T12:41:10;101490.88;;;50.84;20.52
69316;BME280;56445;43.552;5.034;2022-07-23T12:43:39;101468.50;;;50.79;20.54
69316;BME280;56445;43.552;5.034;2022-07-23T12:46:11;101481.28;;;50.87;20.50
69316;BME280;56445;43.552;5.034;2022-07-23T12:51:29;101484.66;;;50.95;20.71
69316;BME280;56445;43.552;5.034;2022-07-23T12:54:07;101481.78;;;50.95;20.49
69316;BME280;56445;43.552;5.034;2022-07-23T12:56:40;101478.44;;;50.96;20.50
69316;BME280;56445;43.552;5.034;2022-07-23T13:00:08;101480.28;;;50.72;19.93
69316;BME280;56445;43.552;5.034;2022-07-23T13:02:45;101495.13;;;50.70;20.18
69316;BME280;56445;43.552;5.034;2022-07-23T13:05:13;101485.19;;;50.62;20.12
69316;BME280;56445;43.552;5.034;2022-07-23T13:07:40;101491.78;;;50.72;20.17
69316;BME280;56445;43.552;5.034;2022-07-23T13:10:08;101467.63;;;50.60;20.21
69316;BME280;56445;43.552;5.034;2022-07-23T13:12:35;101513.75;;;50.66;20.28
69316;BME280;56445;43.552;5.034;2022-07-23T13:15:02;101498.22;;;50.54;20.38
69316;BME280;56445;43.552;5.034;2022-07-23T13:17:30;101487.97;;;50.44;20.23
69316;BME280;56445;43.552;5.034;2022-07-23T13:19:57;101502.66;;;50.46;20.30
69316;BME280;56445;43.552;5.034;2022-07-23T13:22:24;101489.19;;;50.33;19.85
69316;BME280;56445;43.552;5.034;2022-07-23T13:24:51;101480.19;;;50.22;19.98
69316;BME280;56445;43.552;5.034;2022-07-23T13:27:19;101480.28;;;50.09;20.32
69316;BME280;56445;43.552;5.034;2022-07-23T13:29:46;101471.31;;;50.07;19.66
69316;BME280;56445;43.552;5.034;2022-07-23T13:32:13;101464.31;;;50.08;20.28
69316;BME280;56445;43.552;5.034;2022-07-23T13:34:40;101461.44;;;50.08;20.10
69316;BME280;56445;43.552;5.034;2022-07-23T13:37:08;101469.59;;;50.10;20.03
69316;BME280;56445;43.552;5.034;2022-07-23T13:39:35;101477.28;;;50.13;19.90
69316;BME280;56445;43.552;5.034;2022-07-23T13:42:05;101465.38;;;50.01;20.19
69316;BME280;56445;43.552;5.034;2022-07-23T13:44:34;101471.47;;;50.04;19.83
69316;BME280;56445;43.552;5.034;2022-07-23T13:47:02;101468.72;;;50.00;20.16
69316;BME280;56445;43.552;5.034;2022-07-23T13:49:30;101463.09;;;49.87;19.75
69316;BME280;56445;43.552;5.034;2022-07-23T13:51:57;101468.00;;;49.87;19.85
69316;BME280;56445;43.552;5.034;2022-07-23T13:54:25;101460.47;;;49.80;19.84
69316;BME280;56445;43.552;5.034;2022-07-23T13:56:54;101450.09;;;49.73;20.24
69316;BME280;56445;43.552;5.034;2022-07-23T13:59:21;101438.25;;;49.71;19.87
69316;BME280;56445;43.552;5.034;2022-07-23T14:01:52;101456.16;;;49.75;20.03
69316;BME280;56445;43.552;5.034;2022-07-23T14:04:39;101454.88;;;49.76;20.19
69316;BME280;56445;43.552;5.034;2022-07-23T14:07:08;101464.25;;;49.77;20.25
69316;BME280;56445;43.552;5.034;2022-07-23T14:09:36;101457.78;;;49.64;20.13
69316;BME280;56445;43.552;5.034;2022-07-23T14:12:05;101466.78;;;49.53;19.83
69316;BME280;56445;43.552;5.034;2022-07-23T14:14:32;101457.28;;;49.43;19.91
69316;BME280;56445;43.552;5.034;2022-07-23T14:17:03;101463.97;;;49.40;19.79
69316;BME280;56445;43.552;5.034;2022-07-23T14:19:30;101461.56;;;49.38;20.00
69316;BME280;56445;43.552;5.034;2022-07-23T14:21:58;101442.56;;;49.19;19.89
69316;BME280;56445;43.552;5.034;2022-07-23T14:24:26;101445.09;;;49.17;20.08
69316;BME280;56445;43.552;5.034;2022-07-23T14:27:00;101456.31;;;49.24;19.94
69316;BME280;56445;43.552;5.034;2022-07-23T14:29:29;101442.03;;;49.11;19.95
69316;BME280;56445;43.552;5.034;2022-07-23T14:31:57;101439.75;;;49.06;20.05
69316;BME280;56445;43.552;5.034;2022-07-23T14:34:25;101450.97;;;49.00;19.71
69316;BME280;56445;43.552;5.034;2022-07-23T14:36:54;101444.47;;;48.87;19.75
69316;BME280;56445;43.552;5.034;2022-07-23T14:39:22;101434.06;;;48.80;20.02
69316;BME280;56445;43.552;5.034;2022-07-23T14:41:49;101443.66;;;48.87;20.18
69316;BME280;56445;43.552;5.034;2022-07-23T14:44:17;101434.75;;;48.72;19.94
69316;BME280;56445;43.552;5.034;2022-07-23T14:46:45;101440.38;;;48.62;20.21
69316;BME280;56445;43.552;5.034;2022-07-23T14:49:12;101441.84;;;48.54;19.83
69316;BME280;56445;43.552;5.034;2022-07-23T14:51:39;101444.25;;;48.56;20.03
69316;BME280;56445;43.552;5.034;2022-07-23T14:54:09;101443.78;;;48.44;20.04
69316;BME280;56445;43.552;5.034;2022-07-23T14:56:36;101432.25;;;48.35;19.71
69316;BME280;56445;43.552;5.034;2022-07-23T14:59:04;101441.28;;;48.34;20.15
69316;BME280;56445;43.552;5.034;2022-07-23T15:01:32;101434.50;;;48.28;20.03
69316;BME280;56445;43.552;5.034;2022-07-23T15:04:00;101443.78;;;48.32;20.22
69316;BME280;56445;43.552;5.034;2022-07-23T15:06:47;101430.25;;;48.19;20.01
69316;BME280;56445;43.552;5.034;2022-07-23T15:09:15;101436.19;;;48.12;19.98
69316;BME280;56445;43.552;5.034;2022-07-23T15:11:42;101429.44;;;48.06;19.69
69316;BME280;56445;43.552;5.034;2022-07-23T15:14:09;101435.16;;;48.06;19.88
69316;BME280;56445;43.552;5.034;2022-07-23T15:16:43;101427.59;;;47.99;19.91
69316;BME280;56445;43.552;5.034;2022-07-23T15:19:10;101428.94;;;47.95;19.94
69316;BME280;56445;43.552;5.034;2022-07-23T15:21:38;101425.94;;;47.85;19.97
69316;BME280;56445;43.552;5.034;2022-07-23T15:24:05;101441.13;;;47.82;19.78
69316;BME280;56445;43.552;5.034;2022-07-23T15:26:32;101432.38;;;47.60;19.78
69316;BME280;56445;43.552;5.034;2022-07-23T15:29:01;101443.91;;;47.57;19.90
69316;BME280;56445;43.552;5.034;2022-07-23T15:31:30;101445.88;;;47.43;19.65
69316;BME280;56445;43.552;5.034;2022-07-23T15:33:57;101431.75;;;47.23;19.90
69316;BME280;56445;43.552;5.034;2022-07-23T15:36:25;101430.66;;;47.17;19.91
69316;BME280;56445;43.552;5.034;2022-07-23T15:38:53;101437.72;;;47.13;19.76
69316;BME280;56445;43.552;5.034;2022-07-23T15:41:22;101425.22;;;46.90;19.76
69316;BME280;56445;43.552;5.034;2022-07-23T15:43:50;101436.56;;;46.77;19.84
69316;BME280;56445;43.552;5.034;2022-07-23T15:46:17;101431.91;;;46.67;19.73
69316;BME280;56445;43.552;5.034;2022-07-23T15:48:50;101443.41;;;46.63;19.74
69316;BME280;56445;43.552;5.034;2022-07-23T15:51:19;101429.47;;;46.49;19.87
69316;BME280;56445;43.552;5.034;2022-07-23T15:53:46;101438.31;;;46.55;19.81
69316;BME280;56445;43.552;5.034;2022-07-23T15:56:14;101438.13;;;46.45;19.97
69316;BME280;56445;43.552;5.034;2022-07-23T15:58:43;101440.16;;;46.45;19.83
69316;BME280;56445;43.552;5.034;2022-07-23T16:01:11;101437.31;;;46.45;19.91
69316;BME280;56445;43.552;5.034;2022-07-23T16:03:40;101446.34;;;46.43;19.93
69316;BME280;56445;43.552;5.034;2022-07-23T16:06:07;101435.84;;;46.37;19.73
69316;BME280;56445;43.552;5.034;2022-07-23T16:08:44;101432.28;;;46.33;19.77
69316;BME280;56445;43.552;5.034;2022-07-23T16:11:11;101435.84;;;46.37;19.85
69316;BME280;56445;43.552;5.034;2022-07-23T16:13:40;101420.16;;;46.28;19.78
69316;BME280;56445;43.552;5.034;2022-07-23T16:16:09;101432.81;;;46.27;19.79
69316;BME280;56445;43.552;5.034;2022-07-23T16:18:37;101437.63;;;46.30;19.80
69316;BME280;56445;43.552;5.034;2022-07-23T16:21:04;101424.78;;;46.22;19.80
69316;BME280;56445;43.552;5.034;2022-07-23T16:23:40;101436.09;;;46.26;19.60
69316;BME280;56445;43.552;5.034;2022-07-23T16:26:08;101426.53;;;46.16;19.73
69316;BME280;56445;43.552;5.034;2022-07-23T16:28:35;101419.69;;;46.14;19.55
69316;BME280;56445;43.552;5.034;2022-07-23T16:31:02;101432.97;;;46.20;19.75
69316;BME280;56445;43.552;5.034;2022-07-23T16:33:29;101433.84;;;46.17;19.83
69316;BME280;56445;43.552;5.034;2022-07-23T16:35:57;101408.09;;;46.01;19.68
69316;BME280;56445;43.552;5.034;2022-07-23T16:38:24;101424.38;;;46.04;19.74
69316;BME280;56445;43.552;5.034;2022-07-23T16:40:52;101425.22;;;46.01;19.78
69316;BME280;56445;43.552;5.034;2022-07-23T16:43:19;101430.13;;;46.00;19.59
69316;BME280;56445;43.552;5.034;2022-07-23T16:45:46;101420.19;;;45.88;19.46
69316;BME280;56445;43.552;5.034;2022-07-23T16:48:14;101426.97;;;45.95;19.73
69316;BME280;56445;43.552;5.034;2022-07-23T16:50:41;101408.84;;;45.85;19.73
69316;BME280;56445;43.552;5.034;2022-07-23T16:53:08;101414.19;;;45.83;19.84
69316;BME280;56445;43.552;5.034;2022-07-23T16:55:35;101424.81;;;45.82;19.53
69316;BME280;56445;43.552;5.034;2022-07-23T16:58:02;101426.56;;;45.76;19.57
69316;BME280;56445;43.552;5.034;2022-07-23T17:00:29;101425.84;;;45.72;19.50
69316;BME280;56445;43.552;5.034;2022-07-23T17:02:57;101422.22;;;45.68;19.50
69316;BME280;56445;43.552;5.034;2022-07-23T17:05:31;101426.75;;;45.65;19.86
69316;BME280;56445;43.552;5.034;2022-07-23T17:07:58;101438.03;;;45.72;19.76
69316;BME280;56445;43.552;5.034;2022-07-23T17:10:26;101431.91;;;45.74;19.69
69316;BME280;56445;43.552;5.034;2022-07-23T17:12:53;101411.31;;;45.63;19.71
69316;BME280;56445;43.552;5.034;2022-07-23T17:15:20;101424.63;;;45.69;19.84
69316;BME280;56445;43.552;5.034;2022-07-23T17:17:47;101416.16;;;45.66;19.69
69316;BME280;56445;43.552;5.034;2022-07-23T17:20:15;101430.72;;;45.71;19.67
69316;BME280;56445;43.552;5.034;2022-07-23T17:22:42;101435.59;;;45.71;19.81
69316;BME280;56445;43.552;5.034;2022-07-23T17:25:09;101427.56;;;45.66;19.52
69316;BME280;56445;43.552;5.034;2022-07-23T17:27:41;101419.56;;;45.57;19.63
69316;BME280;56445;43.552;5.034;2022-07-23T17:30:11;101430.00;;;45.64;19.49
69316;BME280;56445;43.552;5.034;2022-07-23T17:32:38;101420.38;;;45.58;19.63
69316;BME280;56445;43.552;5.034;2022-07-23T17:35:06;101424.03;;;45.58;19.47
69316;BME280;56445;43.552;5.034;2022-07-23T17:37:35;101426.38;;;45.63;19.91
69316;BME280;56445;43.552;5.034;2022-07-23T17:40:03;101419.56;;;45.57;19.50
69316;BME280;56445;43.552;5.034;2022-07-23T17:42:31;101424.47;;;45.57;19.65
69316;BME280;56445;43.552;5.034;2022-07-23T17:44:59;101424.47;;;45.57;19.40
69316;BME280;56445;43.552;5.034;2022-07-23T17:47:32;101425.28;;;45.57;19.50
69316;BME280;56445;43.552;5.034;2022-07-23T17:50:00;101436.09;;;45.66;19.84
69316;BME280;56445;43.552;5.034;2022-07-23T17:52:27;101428.06;;;45.61;19.85
69316;BME280;56445;43.552;5.034;2022-07-23T17:54:55;101436.09;;;45.66;19.51
69316;BME280;56445;43.552;5.034;2022-07-23T17:57:22;101428.13;;;45.57;19.69
69316;BME280;56445;43.552;5.034;2022-07-23T17:59:49;101438.19;;;45.62;19.61
69316;BME280;56445;43.552;5.034;2022-07-23T18:02:16;101438.19;;;45.62;19.42
69316;BME280;56445;43.552;5.034;2022-07-23T18:04:43;101423.81;;;45.49;19.51
69316;BME280;56445;43.552;5.034;2022-07-23T18:07:10;101452.16;;;45.56;19.73
69316;BME280;56445;43.552;5.034;2022-07-23T18:09:37;101436.06;;;45.46;19.53
69316;BME280;56445;43.552;5.034;2022-07-23T18:12:04;101446.59;;;45.49;19.43
69316;BME280;56445;43.552;5.034;2022-07-23T18:14:31;101456.63;;;45.57;19.68
69316;BME280;56445;43.552;5.034;2022-07-23T18:16:58;101442.59;;;45.46;19.66
69316;BME280;56445;43.552;5.034;2022-07-23T18:19:26;101456.31;;;45.51;19.66
69316;BME280;56445;43.552;5.034;2022-07-23T18:21:53;101450.97;;;45.53;19.34
69316;BME280;56445;43.552;5.034;2022-07-23T18:24:20;101452.59;;;45.55;19.65
69316;BME280;56445;43.552;5.034;2022-07-23T18:26:49;101444.56;;;45.49;19.45
69316;BME280;56445;43.552;5.034;2022-07-23T18:29:16;101446.59;;;45.49;19.45
69316;BME280;56445;43.552;5.034;2022-07-23T18:31:44;101448.28;;;45.46;19.68
69316;BME280;56445;43.552;5.034;2022-07-23T18:34:11;101446.72;;;45.42;19.51
69316;BME280;56445;43.552;5.034;2022-07-23T18:36:39;101443.19;;;45.34;19.33
69316;BME280;56445;43.552;5.034;2022-07-23T18:39:06;101452.50;;;45.38;19.44
69316;BME280;56445;43.552;5.034;2022-07-23T18:41:34;101454.59;;;45.34;19.41
69316;BME280;56445;43.552;5.034;2022-07-23T18:44:02;101453.81;;;45.33;19.32
69316;BME280;56445;43.552;5.034;2022-07-23T18:46:30;101455.06;;;45.32;19.78
69316;BME280;56445;43.552;5.034;2022-07-23T18:48:57;101453.00;;;45.33;19.42
69316;BME280;56445;43.552;5.034;2022-07-23T18:51:24;101456.72;;;45.30;19.45
69316;BME280;56445;43.552;5.034;2022-07-23T18:53:53;101467.19;;;45.37;19.67
69316;BME280;56445;43.552;5.034;2022-07-23T18:56:20;101466.72;;;45.38;19.62
69316;BME280;56445;43.552;5.034;2022-07-23T18:58:47;101472.00;;;45.40;19.55
69316;BME280;56445;43.552;5.034;2022-07-23T19:01:16;101470.31;;;45.42;19.67
69316;BME280;56445;43.552;5.034;2022-07-23T19:03:43;101461.97;;;45.31;19.67
69316;BME280;56445;43.552;5.034;2022-07-23T19:06:10;101456.72;;;45.30;19.22
69316;BME280;56445;43.552;5.034;2022-07-23T19:08:38;101475.66;;;45.40;19.48
69316;BME280;56445;43.552;5.034;2022-07-23T19:11:06;101467.63;;;45.35;19.45
69316;BME280;56445;43.552;5.034;2022-07-23T19:13:33;101466.00;;;45.34;19.56
69316;BME280;56445;43.552;5.034;2022-07-23T19:16:00;101465.63;;;45.32;19.51
69316;BME280;56445;43.552;5.034;2022-07-23T19:18:32;101472.06;;;45.36;19.39
69316;BME280;56445;43.552;5.034;2022-07-23T19:20:59;101470.03;;;45.37;19.77
69316;BME280;56445;43.552;5.034;2022-07-23T19:23:26;101480.13;;;45.41;19.57
69316;BME280;56445;43.552;5.034;2022-07-23T19:25:53;101480.91;;;45.42;19.95
69316;BME280;56445;43.552;5.034;2022-07-23T19:28:20;101485.03;;;45.41;19.53
69316;BME280;56445;43.552;5.034;2022-07-23T19:30:47;101481.06;;;45.35;19.53
69316;BME280;56445;43.552;5.034;2022-07-23T19:33:14;101485.88;;;45.38;19.74
69316;BME280;56445;43.552;5.034;2022-07-23T19:35:41;101476.22;;;45.31;19.78
69316;BME280;56445;43.552;5.034;2022-07-23T19:38:09;101489.66;;;45.31;19.58
69316;BME280;56445;43.552;5.034;2022-07-23T19:40:36;101505.03;;;45.37;19.73
69316;BME280;56445;43.552;5.034;2022-07-23T19:43:03;101511.16;;;45.36;19.72
69316;BME280;56445;43.552;5.034;2022-07-23T19:45:30;101494.22;;;45.25;20.06
69316;BME280;56445;43.552;5.034;2022-07-23T19:47:57;101516.06;;;45.35;19.54
69316;BME280;56445;43.552;5.034;2022-07-23T19:50:25;101514.88;;;45.32;19.72
69316;BME280;56445;43.552;5.034;2022-07-23T19:52:52;101506.47;;;45.22;19.92
69316;BME280;56445;43.552;5.034;2022-07-23T19:55:23;101510.22;;;45.19;19.81
69316;BME280;56445;43.552;5.034;2022-07-23T19:57:50;101522.72;;;45.25;19.88
69316;BME280;56445;43.552;5.034;2022-07-23T20:00:18;101522.88;;;45.14;20.04
69316;BME280;56445;43.552;5.034;2022-07-23T20:02:45;101517.22;;;45.10;20.02
69316;BME280;56445;43.552;5.034;2022-07-23T20:05:21;101535.38;;;45.20;19.88
69316;BME280;56445;43.552;5.034;2022-07-23T20:07:48;101535.91;;;45.15;20.02
69316;BME280;56445;43.552;5.034;2022-07-23T20:10:15;101539.53;;;45.16;19.86
69316;BME280;56445;43.552;5.034;2022-07-23T20:12:42;101524.22;;;45.06;20.22
69316;BME280;56445;43.552;5.034;2022-07-23T20:15:10;101527.09;;;45.06;19.84
69316;BME280;56445;43.552;5.034;2022-07-23T20:17:37;101530.31;;;45.08;19.87
69316;BME280;56445;43.552;5.034;2022-07-23T20:20:07;101541.63;;;45.11;19.88
69316;BME280;56445;43.552;5.034;2022-07-23T20:22:35;101532.78;;;45.06;20.15
69316;BME280;56445;43.552;5.034;2022-07-23T20:25:03;101531.22;;;45.01;20.17
69316;BME280;56445;43.552;5.034;2022-07-23T20:27:31;101544.97;;;45.06;20.17
69316;BME280;56445;43.552;5.034;2022-07-23T20:29:58;101546.69;;;45.00;20.21
69316;BME280;56445;43.552;5.034;2022-07-23T20:32:26;101549.53;;;45.00;20.35
69316;BME280;56445;43.552;5.034;2022-07-23T20:34:53;101555.59;;;45.02;19.87
69316;BME280;56445;43.552;5.034;2022-07-23T20:37:20;101534.66;;;44.89;20.32
69316;BME280;56445;43.552;5.034;2022-07-23T20:39:47;101535.50;;;44.86;20.14
69316;BME280;56445;43.552;5.034;2022-07-23T20:42:14;101538.34;;;44.86;19.96
69316;BME280;56445;43.552;5.034;2022-07-23T20:44:41;101550.88;;;44.92;20.18
69316;BME280;56445;43.552;5.034;2022-07-23T20:47:08;101539.66;;;44.81;20.46
69316;BME280;56445;43.552;5.034;2022-07-23T20:49:35;101553.38;;;44.86;20.46
69316;BME280;56445;43.552;5.034;2022-07-23T20:52:03;101549.34;;;44.84;20.39
69316;BME280;56445;43.552;5.034;2022-07-23T20:54:30;101538.84;;;44.77;20.15
69316;BME280;56445;43.552;5.034;2022-07-23T20:56:57;101548.09;;;44.85;20.10
69316;BME280;56445;43.552;5.034;2022-07-23T20:59:24;101536.50;;;44.72;20.36
69316;BME280;56445;43.552;5.034;2022-07-23T21:01:56;101542.19;;;44.72;20.11
69316;BME280;56445;43.552;5.034;2022-07-23T21:04:23;101535.34;;;44.69;20.20
69316;BME280;56445;43.552;5.034;2022-07-23T21:06:51;101564.47;;;44.77;20.34
69316;BME280;56445;43.552;5.034;2022-07-23T21:09:18;101560.03;;;44.76;20.34
69316;BME280;56445;43.552;5.034;2022-07-23T21:11:45;101536.66;;;44.61;20.55
69316;BME280;56445;43.552;5.034;2022-07-23T21:14:12;101557.59;;;44.74;20.29